createdAt,value
2017-11-22T00:00:02.150Z,787.8
2017-11-22T00:00:06.179Z,787.81
2017-11-22T00:00:10.227Z,787.85
2017-11-22T00:00:14.484Z,787.84
2017-11-22T00:00:18.637Z,787.86
2017-11-22T00:00:23.022Z,787.86
2017-11-22T00:00:27.345Z,787.85
2017-11-22T00:00:31.505Z,787.84
2017-11-22T00:00:35.770Z,787.85
2017-11-22T00:00:40.034Z,787.85
2017-11-22T00:00:44.074Z,787.79
2017-11-22T00:00:48.461Z,787.8
2017-11-22T00:00:52.614Z,787.83
2017-11-22T00:00:56.880Z,787.82
2017-11-22T00:01:01.142Z,787.86
2017-11-22T00:01:05.322Z,787.84
2017-11-22T00:01:09.473Z,787.84
2017-11-22T00:01:13.648Z,787.85
2017-11-22T00:01:17.910Z,787.88
2017-11-22T00:01:22.173Z,787.84
2017-11-22T00:01:26.306Z,787.86
2017-11-22T00:01:30.358Z,787.82
2017-11-22T00:01:34.568Z,787.86
2017-11-22T00:01:38.821Z,787.87
2017-11-22T00:01:43.210Z,787.86
2017-11-22T00:01:47.497Z,787.83
2017-11-22T00:01:51.764Z,787.85
2017-11-22T00:01:56.129Z,787.9
2017-11-22T00:02:00.274Z,787.86
2017-11-22T00:02:04.442Z,787.87
2017-11-22T00:02:08.373Z,787.86
2017-11-22T00:02:12.761Z,787.84
2017-11-22T00:02:17.137Z,787.85
2017-11-22T00:02:21.401Z,787.86
2017-11-22T00:02:25.552Z,787.84
2017-11-22T00:02:29.932Z,787.86
2017-11-22T00:02:34.310Z,787.84
2017-11-22T00:02:38.715Z,787.79
2017-11-22T00:02:42.972Z,787.8
2017-11-22T00:02:47.118Z,787.82
2017-11-22T00:02:51.494Z,787.8
2017-11-22T00:02:55.749Z,787.79
2017-11-22T00:03:00.100Z,787.81
2017-11-22T00:03:04.289Z,787.8
2017-11-22T00:03:08.678Z,787.81
2017-11-22T00:03:12.945Z,787.8
2017-11-22T00:03:17.092Z,787.77
2017-11-22T00:03:21.123Z,787.83
2017-11-22T00:03:25.164Z,787.85
2017-11-22T00:03:29.516Z,787.83
2017-11-22T00:03:33.544Z,787.84
2017-11-22T00:03:37.600Z,787.87
2017-11-22T00:03:41.860Z,787.86
2017-11-22T00:03:46.134Z,787.83
2017-11-22T00:03:50.502Z,787.87
2017-11-22T00:03:54.885Z,787.84
2017-11-22T00:03:59.269Z,787.83
2017-11-22T00:04:03.871Z,787.86
2017-11-22T00:04:08.005Z,787.89
2017-11-22T00:04:12.044Z,787.85
2017-11-22T00:04:16.311Z,787.85
2017-11-22T00:04:20.464Z,787.88
2017-11-22T00:04:24.855Z,787.87
2017-11-22T00:04:29.309Z,787.83
2017-11-22T00:04:33.528Z,787.87
2017-11-22T00:04:37.670Z,787.87
2017-11-22T00:04:41.960Z,787.85
2017-11-22T00:04:46.334Z,787.9
2017-11-22T00:04:50.479Z,787.88
2017-11-22T00:04:54.864Z,787.9
2017-11-22T00:04:59.286Z,787.9
2017-11-22T00:05:03.420Z,787.86
2017-11-22T00:05:07.679Z,787.85
2017-11-22T00:05:12.076Z,787.88
2017-11-22T00:05:16.343Z,787.88
2017-11-22T00:05:20.598Z,787.84
2017-11-22T00:05:24.744Z,787.82
2017-11-22T00:05:28.998Z,787.82
2017-11-22T00:05:33.357Z,787.87
2017-11-22T00:05:37.514Z,787.9
2017-11-22T00:05:41.908Z,787.88
2017-11-22T00:05:46.275Z,787.87
2017-11-22T00:05:50.551Z,787.89
2017-11-22T00:05:54.845Z,787.9
2017-11-22T00:05:59.004Z,787.85
2017-11-22T00:06:03.651Z,787.85
2017-11-22T00:06:07.924Z,787.85
2017-11-22T00:06:12.074Z,787.91
2017-11-22T00:06:16.323Z,787.89
2017-11-22T00:06:20.581Z,787.9
2017-11-22T00:06:24.638Z,787.9
2017-11-22T00:06:29.011Z,787.88
2017-11-22T00:06:33.395Z,787.91
2017-11-22T00:06:37.664Z,787.89
2017-11-22T00:06:41.796Z,787.89
2017-11-22T00:06:46.064Z,787.91
2017-11-22T00:06:50.450Z,787.89
2017-11-22T00:06:54.495Z,787.94
2017-11-22T00:06:58.870Z,787.86
2017-11-22T00:07:03.344Z,787.85
2017-11-22T00:07:07.499Z,787.92
2017-11-22T00:07:11.874Z,787.89
2017-11-22T00:07:16.299Z,787.88
2017-11-22T00:07:20.565Z,787.89
2017-11-22T00:07:24.719Z,787.89
2017-11-22T00:07:29.116Z,787.86
2017-11-22T00:07:33.385Z,787.9
2017-11-22T00:07:37.557Z,787.88
2017-11-22T00:07:41.833Z,787.9
2017-11-22T00:07:46.199Z,787.89
2017-11-22T00:07:50.461Z,787.84
2017-11-22T00:07:54.869Z,787.89
2017-11-22T00:07:59.258Z,787.89
2017-11-22T00:08:03.521Z,787.86
2017-11-22T00:08:07.917Z,787.9
2017-11-22T00:08:12.176Z,787.88
2017-11-22T00:08:16.357Z,787.84
2017-11-22T00:08:20.632Z,787.87
2017-11-22T00:08:24.810Z,787.83
2017-11-22T00:08:29.196Z,787.87
2017-11-22T00:08:33.325Z,787.88
2017-11-22T00:08:37.686Z,787.88
2017-11-22T00:08:42.078Z,787.87
2017-11-22T00:08:46.236Z,787.87
2017-11-22T00:08:50.491Z,787.86
2017-11-22T00:08:54.870Z,787.88
2017-11-22T00:08:59.126Z,787.87
2017-11-22T00:09:03.671Z,787.9
2017-11-22T00:09:07.932Z,787.89
2017-11-22T00:09:12.079Z,787.92
2017-11-22T00:09:16.457Z,787.86
2017-11-22T00:09:20.829Z,787.9
2017-11-22T00:09:25.188Z,787.92
2017-11-22T00:09:29.442Z,787.89
2017-11-22T00:09:33.709Z,787.9
2017-11-22T00:09:37.974Z,787.88
2017-11-22T00:09:42.350Z,787.91
2017-11-22T00:09:46.637Z,787.9
2017-11-22T00:09:51.000Z,787.89
2017-11-22T00:09:55.279Z,787.88
2017-11-22T00:09:59.665Z,787.92
2017-11-22T00:10:03.952Z,787.88
2017-11-22T00:10:08.331Z,787.88
2017-11-22T00:10:12.262Z,787.92
2017-11-22T00:10:16.314Z,787.9
2017-11-22T00:10:20.582Z,787.9
2017-11-22T00:10:24.958Z,787.88
2017-11-22T00:10:29.254Z,787.93
2017-11-22T00:10:33.535Z,787.89
2017-11-22T00:10:37.674Z,787.93
2017-11-22T00:10:42.047Z,787.9
2017-11-22T00:10:46.308Z,787.9
2017-11-22T00:10:50.453Z,787.88
2017-11-22T00:10:54.857Z,787.89
2017-11-22T00:10:59.227Z,787.92
2017-11-22T00:11:03.851Z,787.93
2017-11-22T00:11:08.034Z,787.9
2017-11-22T00:11:12.411Z,787.9
2017-11-22T00:11:16.548Z,787.91
2017-11-22T00:11:20.814Z,787.91
2017-11-22T00:11:25.101Z,787.92
2017-11-22T00:11:29.135Z,787.92
2017-11-22T00:11:33.510Z,787.88
2017-11-22T00:11:37.795Z,787.86
2017-11-22T00:11:42.154Z,787.88
2017-11-22T00:11:46.410Z,787.92
2017-11-22T00:11:50.784Z,787.9
2017-11-22T00:11:55.152Z,787.93
2017-11-22T00:11:59.433Z,787.86
2017-11-22T00:12:03.855Z,787.88
2017-11-22T00:12:08.005Z,787.89
2017-11-22T00:12:12.388Z,787.89
2017-11-22T00:12:16.674Z,787.92
2017-11-22T00:12:20.826Z,787.9
2017-11-22T00:12:24.983Z,787.94
2017-11-22T00:12:29.351Z,787.93
2017-11-22T00:12:33.390Z,787.92
2017-11-22T00:12:37.754Z,787.89
2017-11-22T00:12:42.033Z,787.91
2017-11-22T00:12:46.185Z,787.94
2017-11-22T00:12:50.435Z,787.92
2017-11-22T00:12:54.808Z,787.95
2017-11-22T00:12:58.959Z,787.89
2017-11-22T00:13:03.633Z,787.89
2017-11-22T00:13:07.913Z,787.92
2017-11-22T00:13:12.302Z,787.97
2017-11-22T00:13:16.583Z,787.96
2017-11-22T00:13:20.617Z,787.97
2017-11-22T00:13:25.023Z,787.93
2017-11-22T00:13:29.279Z,787.98
2017-11-22T00:13:33.439Z,787.98
2017-11-22T00:13:37.827Z,787.96
2017-11-22T00:13:42.004Z,787.92
2017-11-22T00:13:46.266Z,787.93
2017-11-22T00:13:50.668Z,787.96
2017-11-22T00:13:54.727Z,787.93
2017-11-22T00:13:58.874Z,787.93
2017-11-22T00:14:03.316Z,787.95
2017-11-22T00:14:07.579Z,787.98
2017-11-22T00:14:11.829Z,787.99
2017-11-22T00:14:16.207Z,787.99
2017-11-22T00:14:20.387Z,787.97
2017-11-22T00:14:24.650Z,788
2017-11-22T00:14:28.903Z,788.01
2017-11-22T00:14:33.280Z,788
2017-11-22T00:14:37.538Z,788
2017-11-22T00:14:41.904Z,788.03
2017-11-22T00:14:46.276Z,788.01
2017-11-22T00:14:50.666Z,787.97
2017-11-22T00:14:55.032Z,787.98
2017-11-22T00:14:59.188Z,787.97
2017-11-22T00:15:03.458Z,787.97
2017-11-22T00:15:07.859Z,788.03
2017-11-22T00:15:12.019Z,788.01
2017-11-22T00:15:16.168Z,787.99
2017-11-22T00:15:20.424Z,787.96
2017-11-22T00:15:24.793Z,787.98
2017-11-22T00:15:29.054Z,788.01
2017-11-22T00:15:33.093Z,787.99
2017-11-22T00:15:37.242Z,788.02
2017-11-22T00:15:41.500Z,788.01
2017-11-22T00:15:45.857Z,787.99
2017-11-22T00:15:50.138Z,788.01
2017-11-22T00:15:54.400Z,788.02
2017-11-22T00:15:58.661Z,788.01
2017-11-22T00:16:03.038Z,788.01
2017-11-22T00:16:07.413Z,788.02
2017-11-22T00:16:11.698Z,788.03
2017-11-22T00:16:15.850Z,787.99
2017-11-22T00:16:20.219Z,787.99
2017-11-22T00:16:24.593Z,787.97
2017-11-22T00:16:28.850Z,788.02
2017-11-22T00:16:33.023Z,788.02
2017-11-22T00:16:37.181Z,787.99
2017-11-22T00:16:41.325Z,788.02
2017-11-22T00:16:45.714Z,788.04
2017-11-22T00:16:49.859Z,788.03
2017-11-22T00:16:54.022Z,788.01
2017-11-22T00:16:58.302Z,788.01
2017-11-22T00:17:02.838Z,788.02
2017-11-22T00:17:07.119Z,788.04
2017-11-22T00:17:11.502Z,788.02
2017-11-22T00:17:15.773Z,788.06
2017-11-22T00:17:20.138Z,788.03
2017-11-22T00:17:24.300Z,788.04
2017-11-22T00:17:28.453Z,788.02
2017-11-22T00:17:32.613Z,788.03
2017-11-22T00:17:36.767Z,787.99
2017-11-22T00:17:40.928Z,788.02
2017-11-22T00:17:45.180Z,788.05
2017-11-22T00:17:49.331Z,788.03
2017-11-22T00:17:53.668Z,788
2017-11-22T00:17:58.040Z,788.04
2017-11-22T00:18:02.283Z,788.01
2017-11-22T00:18:06.574Z,788.04
2017-11-22T00:18:10.840Z,788.06
2017-11-22T00:18:14.981Z,788.04
2017-11-22T00:18:19.236Z,788.04
2017-11-22T00:18:23.625Z,788.03
2017-11-22T00:18:27.985Z,788.03
2017-11-22T00:18:32.130Z,788.01
2017-11-22T00:18:36.392Z,788.03
2017-11-22T00:18:40.666Z,788.03
2017-11-22T00:18:44.945Z,788.03
2017-11-22T00:18:49.230Z,788.05
2017-11-22T00:18:53.366Z,788.1
2017-11-22T00:18:57.516Z,788.07
2017-11-22T00:19:01.865Z,788.08
2017-11-22T00:19:06.006Z,788.06
2017-11-22T00:19:10.364Z,788.04
2017-11-22T00:19:14.401Z,788.1
2017-11-22T00:19:18.764Z,788.04
2017-11-22T00:19:23.028Z,788.08
2017-11-22T00:19:27.183Z,788.05
2017-11-22T00:19:31.324Z,788.07
2017-11-22T00:19:35.472Z,788.1
2017-11-22T00:19:39.748Z,788.11
2017-11-22T00:19:44.037Z,788.08
2017-11-22T00:19:48.410Z,788.07
2017-11-22T00:19:52.784Z,788.05
2017-11-22T00:19:56.822Z,788.06
2017-11-22T00:20:01.187Z,788.08
2017-11-22T00:20:05.334Z,788.08
2017-11-22T00:20:09.729Z,788.09
2017-11-22T00:20:13.893Z,788.1
2017-11-22T00:20:18.073Z,788.11
2017-11-22T00:20:22.397Z,788.09
2017-11-22T00:20:26.540Z,788.11
2017-11-22T00:20:30.899Z,788.12
2017-11-22T00:20:35.159Z,788.11
2017-11-22T00:20:39.315Z,788.12
2017-11-22T00:20:43.704Z,788.13
2017-11-22T00:20:47.987Z,788.13
2017-11-22T00:20:52.242Z,788.14
2017-11-22T00:20:56.529Z,788.12
2017-11-22T00:21:00.792Z,788.15
2017-11-22T00:21:05.267Z,788.17
2017-11-22T00:21:09.521Z,788.16
2017-11-22T00:21:13.692Z,788.13
2017-11-22T00:21:17.975Z,788.14
2017-11-22T00:21:22.347Z,788.14
2017-11-22T00:21:26.629Z,788.14
2017-11-22T00:21:30.659Z,788.16
2017-11-22T00:21:34.817Z,788.18
2017-11-22T00:21:38.948Z,788.18
2017-11-22T00:21:43.211Z,788.18
2017-11-22T00:21:47.593Z,788.19
2017-11-22T00:21:51.997Z,788.16
2017-11-22T00:21:56.048Z,788.2
2017-11-22T00:22:00.306Z,788.2
2017-11-22T00:22:04.357Z,788.17
2017-11-22T00:22:08.739Z,788.2
2017-11-22T00:22:12.902Z,788.19
2017-11-22T00:22:17.149Z,788.19
2017-11-22T00:22:21.430Z,788.21
2017-11-22T00:22:25.690Z,788.24
2017-11-22T00:22:29.952Z,788.21
2017-11-22T00:22:34.209Z,788.21
2017-11-22T00:22:38.496Z,788.19
2017-11-22T00:22:42.663Z,788.21
2017-11-22T00:22:46.952Z,788.19
2017-11-22T00:22:51.368Z,788.24
2017-11-22T00:22:55.636Z,788.22
2017-11-22T00:22:59.914Z,788.24
2017-11-22T00:23:04.175Z,788.26
2017-11-22T00:23:08.556Z,788.28
2017-11-22T00:23:12.712Z,788.25
2017-11-22T00:23:17.082Z,788.28
2017-11-22T00:23:21.356Z,788.29
2017-11-22T00:23:25.639Z,788.29
2017-11-22T00:23:29.911Z,788.3
2017-11-22T00:23:34.277Z,788.31
2017-11-22T00:23:38.526Z,788.32
2017-11-22T00:23:42.585Z,788.34
2017-11-22T00:23:46.977Z,788.31
2017-11-22T00:23:51.152Z,788.32
2017-11-22T00:23:55.554Z,788.32
2017-11-22T00:23:59.820Z,788.34
2017-11-22T00:24:04.187Z,788.32
2017-11-22T00:24:08.437Z,788.31
2017-11-22T00:24:12.596Z,788.33
2017-11-22T00:24:16.865Z,788.36
2017-11-22T00:24:21.128Z,788.4
2017-11-22T00:24:25.514Z,788.37
2017-11-22T00:24:29.912Z,788.38
2017-11-22T00:24:34.080Z,788.45
2017-11-22T00:24:38.336Z,788.42
2017-11-22T00:24:42.382Z,788.46
2017-11-22T00:24:46.773Z,788.42
2017-11-22T00:24:50.919Z,788.42
2017-11-22T00:24:55.181Z,788.4
2017-11-22T00:24:59.545Z,788.46
2017-11-22T00:25:03.827Z,788.44
2017-11-22T00:25:08.103Z,788.41
2017-11-22T00:25:12.462Z,788.46
2017-11-22T00:25:16.817Z,788.52
2017-11-22T00:25:21.094Z,788.49
2017-11-22T00:25:25.465Z,788.5
2017-11-22T00:25:29.845Z,788.55
2017-11-22T00:25:34.107Z,788.51
2017-11-22T00:25:38.248Z,788.48
2017-11-22T00:25:42.508Z,788.53
2017-11-22T00:25:46.875Z,788.5
2017-11-22T00:25:50.807Z,788.54
2017-11-22T00:25:55.085Z,788.52
2017-11-22T00:25:59.235Z,788.55
2017-11-22T00:26:03.404Z,788.56
2017-11-22T00:26:07.662Z,788.57
2017-11-22T00:26:11.925Z,788.56
2017-11-22T00:26:15.973Z,788.58
2017-11-22T00:26:20.370Z,788.59
2017-11-22T00:26:24.615Z,788.59
2017-11-22T00:26:28.904Z,788.6
2017-11-22T00:26:33.077Z,788.61
2017-11-22T00:26:37.122Z,788.59
2017-11-22T00:26:41.381Z,788.61
2017-11-22T00:26:45.638Z,788.61
2017-11-22T00:26:49.893Z,788.6
2017-11-22T00:26:54.266Z,788.63
2017-11-22T00:26:58.528Z,788.6
2017-11-22T00:27:02.887Z,788.61
2017-11-22T00:27:07.164Z,788.65
2017-11-22T00:27:11.552Z,788.66
2017-11-22T00:27:15.703Z,788.65
2017-11-22T00:27:20.079Z,788.63
2017-11-22T00:27:24.340Z,788.66
2017-11-22T00:27:28.606Z,788.64
2017-11-22T00:27:32.968Z,788.65
2017-11-22T00:27:37.255Z,788.66
2017-11-22T00:27:41.631Z,788.66
2017-11-22T00:27:45.673Z,788.66
2017-11-22T00:27:49.942Z,788.7
2017-11-22T00:27:54.355Z,788.73
2017-11-22T00:27:58.709Z,788.73
2017-11-22T00:28:03.055Z,788.7
2017-11-22T00:28:07.206Z,788.72
2017-11-22T00:28:11.356Z,788.7
2017-11-22T00:28:15.716Z,788.74
2017-11-22T00:28:19.879Z,788.73
2017-11-22T00:28:24.034Z,788.72
2017-11-22T00:28:28.298Z,788.7
2017-11-22T00:28:32.570Z,788.77
2017-11-22T00:28:36.993Z,788.72
2017-11-22T00:28:41.259Z,788.76
2017-11-22T00:28:45.631Z,788.73
2017-11-22T00:28:50.028Z,788.75
2017-11-22T00:28:54.284Z,788.74
2017-11-22T00:28:58.658Z,788.74
2017-11-22T00:29:03.214Z,788.76
2017-11-22T00:29:07.476Z,788.77
2017-11-22T00:29:11.839Z,788.78
2017-11-22T00:29:15.988Z,788.78
2017-11-22T00:29:20.137Z,788.79
2017-11-22T00:29:24.509Z,788.8
2017-11-22T00:29:28.890Z,788.79
2017-11-22T00:29:33.279Z,788.8
2017-11-22T00:29:37.536Z,788.79
2017-11-22T00:29:41.685Z,788.81
2017-11-22T00:29:45.844Z,788.83
2017-11-22T00:29:50.234Z,788.8
2017-11-22T00:29:54.489Z,788.83
2017-11-22T00:29:58.639Z,788.83
2017-11-22T00:30:03.055Z,788.83
2017-11-22T00:30:07.475Z,788.8
2017-11-22T00:30:11.974Z,788.84
2017-11-22T00:30:16.247Z,788.82
2017-11-22T00:30:20.613Z,788.83
2017-11-22T00:30:25.003Z,788.78
2017-11-22T00:30:29.280Z,788.83
2017-11-22T00:30:33.658Z,788.84
2017-11-22T00:30:37.934Z,788.86
2017-11-22T00:30:42.196Z,788.85
2017-11-22T00:30:46.553Z,788.85
2017-11-22T00:30:50.813Z,788.87
2017-11-22T00:30:55.085Z,788.87
2017-11-22T00:30:59.361Z,788.84
2017-11-22T00:31:03.775Z,788.89
2017-11-22T00:31:08.049Z,788.87
2017-11-22T00:31:12.436Z,788.88
2017-11-22T00:31:16.687Z,788.88
2017-11-22T00:31:20.830Z,788.88
2017-11-22T00:31:24.875Z,788.87
2017-11-22T00:31:28.917Z,788.91
2017-11-22T00:31:32.954Z,788.91
2017-11-22T00:31:37.195Z,788.92
2017-11-22T00:31:41.570Z,788.88
2017-11-22T00:31:45.964Z,788.91
2017-11-22T00:31:50.282Z,788.91
2017-11-22T00:31:54.668Z,788.92
2017-11-22T00:31:59.045Z,788.93
2017-11-22T00:32:03.329Z,788.95
2017-11-22T00:32:07.707Z,788.94
2017-11-22T00:32:11.979Z,788.93
2017-11-22T00:32:16.368Z,788.87
2017-11-22T00:32:20.735Z,788.93
2017-11-22T00:32:25.029Z,788.94
2017-11-22T00:32:29.414Z,788.95
2017-11-22T00:32:33.668Z,788.91
2017-11-22T00:32:37.830Z,788.94
2017-11-22T00:32:42.215Z,789
2017-11-22T00:32:46.461Z,788.96
2017-11-22T00:32:50.824Z,789.02
2017-11-22T00:32:54.996Z,789
2017-11-22T00:32:59.374Z,788.99
2017-11-22T00:33:03.745Z,789
2017-11-22T00:33:07.900Z,788.95
2017-11-22T00:33:12.281Z,788.97
2017-11-22T00:33:16.655Z,789.03
2017-11-22T00:33:20.948Z,789.02
2017-11-22T00:33:25.097Z,789.02
2017-11-22T00:33:29.236Z,789
2017-11-22T00:33:33.494Z,789.04
2017-11-22T00:33:37.762Z,789.01
2017-11-22T00:33:42.143Z,788.98
2017-11-22T00:33:46.071Z,788.98
2017-11-22T00:33:50.233Z,789
2017-11-22T00:33:54.608Z,789.03
2017-11-22T00:33:58.664Z,789.07
2017-11-22T00:34:03.054Z,789.03
2017-11-22T00:34:07.328Z,789.06
2017-11-22T00:34:11.591Z,789.06
2017-11-22T00:34:15.829Z,789.05
2017-11-22T00:34:19.863Z,789.07
2017-11-22T00:34:24.124Z,789.07
2017-11-22T00:34:28.408Z,789.08
2017-11-22T00:34:32.810Z,789.08
2017-11-22T00:34:36.961Z,789.08
2017-11-22T00:34:41.341Z,789.07
2017-11-22T00:34:45.718Z,789.1
2017-11-22T00:34:50.079Z,789.1
2017-11-22T00:34:54.373Z,789.08
2017-11-22T00:34:58.772Z,789.11
2017-11-22T00:35:03.072Z,789.13
2017-11-22T00:35:07.440Z,789.09
2017-11-22T00:35:11.808Z,789.07
2017-11-22T00:35:16.172Z,789.08
2017-11-22T00:35:20.536Z,789.07
2017-11-22T00:35:24.920Z,789.11
2017-11-22T00:35:29.062Z,789.1
2017-11-22T00:35:33.422Z,789.12
2017-11-22T00:35:37.472Z,789.16
2017-11-22T00:35:41.626Z,789.13
2017-11-22T00:35:45.652Z,789.15
2017-11-22T00:35:50.029Z,789.14
2017-11-22T00:35:54.287Z,789.14
2017-11-22T00:35:58.668Z,789.15
2017-11-22T00:36:02.854Z,789.16
2017-11-22T00:36:06.890Z,789.15
2017-11-22T00:36:11.041Z,789.13
2017-11-22T00:36:15.337Z,789.08
2017-11-22T00:36:19.741Z,789.13
2017-11-22T00:36:24.099Z,789.15
2017-11-22T00:36:28.346Z,789.17
2017-11-22T00:36:32.503Z,789.19
2017-11-22T00:36:36.751Z,789.2
2017-11-22T00:36:41.030Z,789.2
2017-11-22T00:36:45.287Z,789.17
2017-11-22T00:36:49.679Z,789.19
2017-11-22T00:36:53.939Z,789.2
2017-11-22T00:36:58.340Z,789.2
2017-11-22T00:37:02.646Z,789.21
2017-11-22T00:37:06.924Z,789.2
2017-11-22T00:37:11.233Z,789.22
2017-11-22T00:37:15.528Z,789.23
2017-11-22T00:37:19.683Z,789.21
2017-11-22T00:37:23.831Z,789.21
2017-11-22T00:37:28.102Z,789.23
2017-11-22T00:37:32.472Z,789.24
2017-11-22T00:37:36.734Z,789.25
2017-11-22T00:37:40.904Z,789.26
2017-11-22T00:37:45.173Z,789.29
2017-11-22T00:37:49.553Z,789.27
2017-11-22T00:37:53.828Z,789.26
2017-11-22T00:37:57.986Z,789.29
2017-11-22T00:38:02.276Z,789.26
2017-11-22T00:38:06.668Z,789.29
2017-11-22T00:38:11.041Z,789.3
2017-11-22T00:38:15.413Z,789.3
2017-11-22T00:38:19.440Z,789.29
2017-11-22T00:38:23.716Z,789.31
2017-11-22T00:38:28.084Z,789.29
2017-11-22T00:38:32.229Z,789.3
2017-11-22T00:38:36.503Z,789.32
2017-11-22T00:38:40.675Z,789.31
2017-11-22T00:38:44.945Z,789.31
2017-11-22T00:38:49.324Z,789.33
2017-11-22T00:38:53.609Z,789.34
2017-11-22T00:38:57.877Z,789.33
2017-11-22T00:39:02.269Z,789.32
2017-11-22T00:39:06.422Z,789.34
2017-11-22T00:39:10.679Z,789.36
2017-11-22T00:39:14.956Z,789.32
2017-11-22T00:39:19.344Z,789.38
2017-11-22T00:39:23.594Z,789.34
2017-11-22T00:39:27.959Z,789.38
2017-11-22T00:39:32.130Z,789.37
2017-11-22T00:39:36.168Z,789.37
2017-11-22T00:39:40.434Z,789.36
2017-11-22T00:39:44.814Z,789.4
2017-11-22T00:39:49.190Z,789.39
2017-11-22T00:39:53.449Z,789.4
2017-11-22T00:39:57.829Z,789.38
2017-11-22T00:40:01.992Z,789.4
2017-11-22T00:40:06.238Z,789.38
2017-11-22T00:40:10.175Z,789.42
2017-11-22T00:40:14.434Z,789.42
2017-11-22T00:40:18.706Z,789.39
2017-11-22T00:40:23.103Z,789.41
2017-11-22T00:40:27.483Z,789.39
2017-11-22T00:40:31.743Z,789.41
2017-11-22T00:40:36.015Z,789.4
2017-11-22T00:40:40.296Z,789.43
2017-11-22T00:40:44.559Z,789.43
2017-11-22T00:40:48.716Z,789.45
2017-11-22T00:40:52.866Z,789.42
2017-11-22T00:40:56.897Z,789.44
2017-11-22T00:41:01.149Z,789.45
2017-11-22T00:41:05.217Z,789.44
2017-11-22T00:41:09.488Z,789.42
2017-11-22T00:41:13.744Z,789.41
2017-11-22T00:41:18.010Z,789.43
2017-11-22T00:41:22.312Z,789.47
2017-11-22T00:41:26.563Z,789.44
2017-11-22T00:41:30.938Z,789.47
2017-11-22T00:41:35.303Z,789.49
2017-11-22T00:41:39.561Z,789.44
2017-11-22T00:41:43.838Z,789.47
2017-11-22T00:41:48.100Z,789.44
2017-11-22T00:41:52.365Z,789.48
2017-11-22T00:41:56.505Z,789.5
2017-11-22T00:42:00.658Z,789.46
2017-11-22T00:42:04.814Z,789.47
2017-11-22T00:42:08.963Z,789.47
2017-11-22T00:42:13.329Z,789.48
2017-11-22T00:42:17.693Z,789.5
2017-11-22T00:42:22.073Z,789.52
2017-11-22T00:42:26.449Z,789.5
2017-11-22T00:42:30.828Z,789.51
2017-11-22T00:42:35.092Z,789.5
2017-11-22T00:42:39.368Z,789.5
2017-11-22T00:42:43.625Z,789.49
2017-11-22T00:42:48.032Z,789.52
2017-11-22T00:42:52.304Z,789.52
2017-11-22T00:42:56.460Z,789.51
2017-11-22T00:43:00.826Z,789.53
2017-11-22T00:43:04.985Z,789.51
2017-11-22T00:43:09.368Z,789.55
2017-11-22T00:43:13.730Z,789.52
2017-11-22T00:43:17.800Z,789.55
2017-11-22T00:43:22.089Z,789.52
2017-11-22T00:43:26.476Z,789.47
2017-11-22T00:43:30.726Z,789.51
2017-11-22T00:43:35.109Z,789.52
2017-11-22T00:43:39.485Z,789.56
2017-11-22T00:43:43.865Z,789.54
2017-11-22T00:43:48.032Z,789.58
2017-11-22T00:43:52.078Z,789.55
2017-11-22T00:43:56.449Z,789.52
2017-11-22T00:44:00.862Z,789.59
2017-11-22T00:44:05.159Z,789.58
2017-11-22T00:44:09.447Z,789.58
2017-11-22T00:44:13.840Z,789.55
2017-11-22T00:44:18.226Z,789.58
2017-11-22T00:44:22.494Z,789.57
2017-11-22T00:44:26.659Z,789.57
2017-11-22T00:44:31.029Z,789.59
2017-11-22T00:44:35.285Z,789.59
2017-11-22T00:44:39.449Z,789.59
2017-11-22T00:44:43.820Z,789.58
2017-11-22T00:44:47.978Z,789.57
2017-11-22T00:44:52.243Z,789.58
2017-11-22T00:44:56.560Z,789.6
2017-11-22T00:45:00.924Z,789.59
2017-11-22T00:45:04.965Z,789.6
2017-11-22T00:45:09.359Z,789.55
2017-11-22T00:45:13.508Z,789.57
2017-11-22T00:45:17.773Z,789.61
2017-11-22T00:45:22.048Z,789.61
2017-11-22T00:45:26.083Z,789.61
2017-11-22T00:45:30.335Z,789.62
2017-11-22T00:45:34.697Z,789.6
2017-11-22T00:45:38.978Z,789.61
2017-11-22T00:45:43.118Z,789.58
2017-11-22T00:45:47.544Z,789.6
2017-11-22T00:45:51.985Z,789.59
2017-11-22T00:45:56.354Z,789.61
2017-11-22T00:46:00.637Z,789.61
2017-11-22T00:46:04.794Z,789.59
2017-11-22T00:46:08.941Z,789.57
2017-11-22T00:46:13.084Z,789.6
2017-11-22T00:46:17.363Z,789.63
2017-11-22T00:46:21.527Z,789.6
2017-11-22T00:46:25.688Z,789.61
2017-11-22T00:46:29.957Z,789.61
2017-11-22T00:46:34.335Z,789.62
2017-11-22T00:46:38.377Z,789.61
2017-11-22T00:46:42.935Z,789.59
2017-11-22T00:46:47.201Z,789.62
2017-11-22T00:46:51.511Z,789.6
2017-11-22T00:46:55.899Z,789.61
2017-11-22T00:47:00.067Z,789.58
2017-11-22T00:47:04.592Z,789.57
2017-11-22T00:47:08.868Z,789.56
2017-11-22T00:47:13.130Z,789.59
2017-11-22T00:47:17.495Z,789.6
2017-11-22T00:47:21.676Z,789.57
2017-11-22T00:47:26.043Z,789.58
2017-11-22T00:47:30.301Z,789.58
2017-11-22T00:47:34.466Z,789.59
2017-11-22T00:47:38.621Z,789.61
2017-11-22T00:47:42.986Z,789.6
2017-11-22T00:47:47.377Z,789.61
2017-11-22T00:47:51.556Z,789.6
2017-11-22T00:47:55.916Z,789.58
2017-11-22T00:48:00.197Z,789.56
2017-11-22T00:48:04.590Z,789.56
2017-11-22T00:48:08.900Z,789.55
2017-11-22T00:48:13.273Z,789.57
2017-11-22T00:48:17.435Z,789.58
2017-11-22T00:48:21.853Z,789.58
2017-11-22T00:48:26.223Z,789.57
2017-11-22T00:48:30.656Z,789.55
2017-11-22T00:48:35.030Z,789.57
2017-11-22T00:48:39.413Z,789.59
2017-11-22T00:48:43.605Z,789.57
2017-11-22T00:48:47.850Z,789.54
2017-11-22T00:48:52.239Z,789.58
2017-11-22T00:48:56.638Z,789.55
2017-11-22T00:49:00.988Z,789.56
2017-11-22T00:49:05.594Z,789.53
2017-11-22T00:49:09.863Z,789.54
2017-11-22T00:49:14.235Z,789.48
2017-11-22T00:49:18.377Z,789.51
2017-11-22T00:49:22.634Z,789.57
2017-11-22T00:49:26.786Z,789.56
2017-11-22T00:49:30.922Z,789.54
2017-11-22T00:49:35.054Z,789.54
2017-11-22T00:49:39.323Z,789.55
2017-11-22T00:49:43.474Z,789.55
2017-11-22T00:49:47.850Z,789.54
2017-11-22T00:49:52.230Z,789.53
2017-11-22T00:49:56.518Z,789.57
2017-11-22T00:50:00.916Z,789.55
2017-11-22T00:50:05.436Z,789.52
2017-11-22T00:50:09.598Z,789.52
2017-11-22T00:50:13.852Z,789.53
2017-11-22T00:50:18.220Z,789.55
2017-11-22T00:50:22.596Z,789.55
2017-11-22T00:50:26.978Z,789.53
2017-11-22T00:50:31.355Z,789.5
2017-11-22T00:50:35.514Z,789.5
2017-11-22T00:50:39.871Z,789.52
2017-11-22T00:50:43.898Z,789.55
2017-11-22T00:50:48.295Z,789.52
2017-11-22T00:50:52.568Z,789.49
2017-11-22T00:50:56.948Z,789.51
2017-11-22T00:51:01.101Z,789.51
2017-11-22T00:51:05.249Z,789.5
2017-11-22T00:51:09.605Z,789.5
2017-11-22T00:51:13.883Z,789.47
2017-11-22T00:51:18.255Z,789.5
2017-11-22T00:51:22.527Z,789.5
2017-11-22T00:51:26.908Z,789.47
2017-11-22T00:51:30.842Z,789.48
2017-11-22T00:51:35.198Z,789.47
2017-11-22T00:51:39.464Z,789.49
2017-11-22T00:51:43.763Z,789.47
2017-11-22T00:51:48.026Z,789.46
2017-11-22T00:51:52.286Z,789.46
2017-11-22T00:51:56.657Z,789.47
2017-11-22T00:52:01.040Z,789.5
2017-11-22T00:52:05.343Z,789.45
2017-11-22T00:52:09.506Z,789.49
2017-11-22T00:52:13.771Z,789.44
2017-11-22T00:52:18.146Z,789.49
2017-11-22T00:52:22.304Z,789.47
2017-11-22T00:52:26.690Z,789.44
2017-11-22T00:52:31.067Z,789.45
2017-11-22T00:52:35.214Z,789.48
2017-11-22T00:52:39.608Z,789.48
2017-11-22T00:52:43.528Z,789.44
2017-11-22T00:52:47.789Z,789.44
2017-11-22T00:52:51.956Z,789.46
2017-11-22T00:52:56.212Z,789.47
2017-11-22T00:53:00.469Z,789.49
2017-11-22T00:53:04.845Z,789.48
2017-11-22T00:53:09.273Z,789.42
2017-11-22T00:53:13.537Z,789.46
2017-11-22T00:53:17.698Z,789.44
2017-11-22T00:53:21.748Z,789.46
2017-11-22T00:53:26.008Z,789.46
2017-11-22T00:53:30.281Z,789.45
2017-11-22T00:53:34.567Z,789.44